sensor_id;sensor_type;location;lat;lon;timestamp;P1;durP1;ratioP1;P2;durP2;ratioP2
70297;SDS011;57702;44.420;20.298;2022-12-20T00:00:56;6.78;;;4.90;;
70297;SDS011;57702;44.420;20.298;2022-12-20T00:03:23;11.10;;;6.38;;
70297;SDS011;57702;44.420;20.298;2022-12-20T00:05:49;4.68;;;4.35;;
70297;SDS011;57702;44.420;20.298;2022-12-20T00:08:15;4.97;;;2.72;;
70297;SDS011;57702;44.420;20.298;2022-12-20T00:10:42;12.20;;;5.57;;
70297;SDS011;57702;44.420;20.298;2022-12-20T00:13:09;6.18;;;4.88;;
70297;SDS011;57702;44.420;20.298;2022-12-20T00:15:35;5.43;;;4.75;;
70297;SDS011;57702;44.420;20.298;2022-12-20T00:18:02;10.05;;;5.25;;
70297;SDS011;57702;44.420;20.298;2022-12-20T00:20:28;9.70;;;4.65;;
70297;SDS011;57702;44.420;20.298;2022-12-20T00:22:55;3.35;;;2.80;;
70297;SDS011;57702;44.420;20.298;2022-12-20T00:25:21;9.60;;;5.55;;
70297;SDS011;57702;44.420;20.298;2022-12-20T00:27:47;15.90;;;6.40;;
70297;SDS011;57702;44.420;20.298;2022-12-20T00:30:14;5.53;;;2.67;;
70297;SDS011;57702;44.420;20.298;2022-12-20T00:32:40;20.75;;;6.32;;
70297;SDS011;57702;44.420;20.298;2022-12-20T00:35:07;9.35;;;5.95;;
70297;SDS011;57702;44.420;20.298;2022-12-20T00:37:33;6.63;;;5.15;;
70297;SDS011;57702;44.420;20.298;2022-12-20T00:39:59;3.22;;;3.00;;
70297;SDS011;57702;44.420;20.298;2022-12-20T00:42:25;7.13;;;2.58;;
70297;SDS011;57702;44.420;20.298;2022-12-20T00:44:51;4.18;;;3.50;;
70297;SDS011;57702;44.420;20.298;2022-12-20T00:47:18;5.30;;;3.53;;
70297;SDS011;57702;44.420;20.298;2022-12-20T00:49:44;6.30;;;5.07;;
70297;SDS011;57702;44.420;20.298;2022-12-20T00:52:10;7.10;;;5.53;;
70297;SDS011;57702;44.420;20.298;2022-12-20T00:54:36;5.00;;;4.63;;
70297;SDS011;57702;44.420;20.298;2022-12-20T00:57:02;3.00;;;2.90;;
70297;SDS011;57702;44.420;20.298;2022-12-20T00:59:28;4.93;;;4.63;;
70297;SDS011;57702;44.420;20.298;2022-12-20T01:01:55;6.57;;;4.38;;
70297;SDS011;57702;44.420;20.298;2022-12-20T01:04:21;8.35;;;6.80;;
70297;SDS011;57702;44.420;20.298;2022-12-20T01:06:47;4.78;;;4.43;;
70297;SDS011;57702;44.420;20.298;2022-12-20T01:09:13;4.60;;;4.20;;
70297;SDS011;57702;44.420;20.298;2022-12-20T01:11:39;3.50;;;3.22;;
70297;SDS011;57702;44.420;20.298;2022-12-20T01:14:10;3.88;;;3.60;;
70297;SDS011;57702;44.420;20.298;2022-12-20T01:16:38;3.40;;;3.23;;
70297;SDS011;57702;44.420;20.298;2022-12-20T01:19:05;4.22;;;3.83;;
70297;SDS011;57702;44.420;20.298;2022-12-20T01:21:32;4.70;;;4.30;;
70297;SDS011;57702;44.420;20.298;2022-12-20T01:23:59;6.45;;;4.25;;
70297;SDS011;57702;44.420;20.298;2022-12-20T01:26:26;9.43;;;4.22;;
70297;SDS011;57702;44.420;20.298;2022-12-20T01:28:54;7.70;;;4.50;;
70297;SDS011;57702;44.420;20.298;2022-12-20T01:31:20;4.07;;;3.28;;
70297;SDS011;57702;44.420;20.298;2022-12-20T01:33:47;6.68;;;3.72;;
70297;SDS011;57702;44.420;20.298;2022-12-20T01:36:14;5.97;;;2.10;;
70297;SDS011;57702;44.420;20.298;2022-12-20T01:38:41;4.50;;;4.18;;
70297;SDS011;57702;44.420;20.298;2022-12-20T01:41:07;7.70;;;5.22;;
70297;SDS011;57702;44.420;20.298;2022-12-20T01:46:30;6.13;;;4.90;;
70297;SDS011;57702;44.420;20.298;2022-12-20T01:54:27;5.72;;;4.32;;
70297;SDS011;57702;44.420;20.298;2022-12-20T01:56:57;2.85;;;2.65;;
70297;SDS011;57702;44.420;20.298;2022-12-20T01:59:25;13.90;;;2.55;;
70297;SDS011;57702;44.420;20.298;2022-12-20T02:01:52;3.97;;;3.60;;
70297;SDS011;57702;44.420;20.298;2022-12-20T02:04:18;4.47;;;2.80;;
70297;SDS011;57702;44.420;20.298;2022-12-20T02:06:44;6.13;;;3.33;;
70297;SDS011;57702;44.420;20.298;2022-12-20T02:09:10;6.65;;;3.00;;
70297;SDS011;57702;44.420;20.298;2022-12-20T02:11:45;2.47;;;2.33;;
70297;SDS011;57702;44.420;20.298;2022-12-20T02:29:39;3.20;;;2.97;;
70297;SDS011;57702;44.420;20.298;2022-12-20T02:34:37;5.20;;;4.18;;
70297;SDS011;57702;44.420;20.298;2022-12-20T02:37:04;3.20;;;2.65;;
70297;SDS011;57702;44.420;20.298;2022-12-20T02:39:30;6.32;;;2.75;;
70297;SDS011;57702;44.420;20.298;2022-12-20T02:42:00;4.80;;;4.38;;
70297;SDS011;57702;44.420;20.298;2022-12-20T02:44:29;4.60;;;3.95;;
70297;SDS011;57702;44.420;20.298;2022-12-20T02:47:17;3.95;;;3.65;;
70297;SDS011;57702;44.420;20.298;2022-12-20T02:49:45;7.00;;;3.78;;
70297;SDS011;57702;44.420;20.298;2022-12-20T02:52:12;6.75;;;3.95;;
70297;SDS011;57702;44.420;20.298;2022-12-20T02:54:39;5.90;;;3.88;;
70297;SDS011;57702;44.420;20.298;2022-12-20T02:57:19;5.50;;;4.68;;
70297;SDS011;57702;44.420;20.298;2022-12-20T03:04:45;2.47;;;2.33;;
70297;SDS011;57702;44.420;20.298;2022-12-20T03:07:13;7.78;;;4.50;;
70297;SDS011;57702;44.420;20.298;2022-12-20T03:09:41;4.70;;;3.47;;
70297;SDS011;57702;44.420;20.298;2022-12-20T03:12:08;2.83;;;2.60;;
70297;SDS011;57702;44.420;20.298;2022-12-20T03:14:36;1.58;;;1.52;;
70297;SDS011;57702;44.420;20.298;2022-12-20T03:17:02;3.05;;;2.85;;
70297;SDS011;57702;44.420;20.298;2022-12-20T03:19:28;14.25;;;4.22;;
70297;SDS011;57702;44.420;20.298;2022-12-20T03:21:54;3.78;;;3.50;;
70297;SDS011;57702;44.420;20.298;2022-12-20T03:24:21;7.63;;;4.82;;
70297;SDS011;57702;44.420;20.298;2022-12-20T03:26:47;8.35;;;3.80;;
70297;SDS011;57702;44.420;20.298;2022-12-20T03:29:13;4.43;;;4.13;;
70297;SDS011;57702;44.420;20.298;2022-12-20T03:31:39;3.20;;;3.00;;
70297;SDS011;57702;44.420;20.298;2022-12-20T03:34:05;6.22;;;3.75;;
70297;SDS011;57702;44.420;20.298;2022-12-20T03:36:32;5.70;;;3.72;;
70297;SDS011;57702;44.420;20.298;2022-12-20T03:38:58;3.70;;;3.45;;
70297;SDS011;57702;44.420;20.298;2022-12-20T03:41:24;9.77;;;2.88;;
70297;SDS011;57702;44.420;20.298;2022-12-20T03:43:51;2.63;;;2.50;;
70297;SDS011;57702;44.420;20.298;2022-12-20T03:46:17;3.60;;;3.40;;
70297;SDS011;57702;44.420;20.298;2022-12-20T03:48:43;3.78;;;3.42;;
70297;SDS011;57702;44.420;20.298;2022-12-20T03:51:09;4.63;;;4.15;;
70297;SDS011;57702;44.420;20.298;2022-12-20T03:53:36;5.20;;;3.63;;
70297;SDS011;57702;44.420;20.298;2022-12-20T03:56:02;6.90;;;3.15;;
70297;SDS011;57702;44.420;20.298;2022-12-20T03:58:28;5.88;;;4.05;;
70297;SDS011;57702;44.420;20.298;2022-12-20T04:00:55;3.92;;;3.72;;
70297;SDS011;57702;44.420;20.298;2022-12-20T04:03:21;2.45;;;2.33;;
70297;SDS011;57702;44.420;20.298;2022-12-20T04:05:48;4.07;;;3.65;;
70297;SDS011;57702;44.420;20.298;2022-12-20T04:08:14;3.00;;;2.90;;
70297;SDS011;57702;44.420;20.298;2022-12-20T04:10:40;6.97;;;6.25;;
70297;SDS011;57702;44.420;20.298;2022-12-20T04:13:25;3.17;;;3.00;;
70297;SDS011;57702;44.420;20.298;2022-12-20T04:15:51;4.28;;;3.28;;
70297;SDS011;57702;44.420;20.298;2022-12-20T04:18:17;1.98;;;1.88;;
70297;SDS011;57702;44.420;20.298;2022-12-20T04:20:44;6.10;;;4.35;;
70297;SDS011;57702;44.420;20.298;2022-12-20T04:23:10;3.95;;;3.70;;
70297;SDS011;57702;44.420;20.298;2022-12-20T04:25:36;5.53;;;5.03;;
70297;SDS011;57702;44.420;20.298;2022-12-20T04:28:02;2.30;;;1.85;;
70297;SDS011;57702;44.420;20.298;2022-12-20T04:30:28;2.90;;;2.75;;
70297;SDS011;57702;44.420;20.298;2022-12-20T04:32:54;3.75;;;2.97;;
70297;SDS011;57702;44.420;20.298;2022-12-20T04:35:21;5.20;;;4.63;;
70297;SDS011;57702;44.420;20.298;2022-12-20T04:37:47;9.10;;;2.28;;
70297;SDS011;57702;44.420;20.298;2022-12-20T04:40:13;2.72;;;2.58;;
70297;SDS011;57702;44.420;20.298;2022-12-20T04:42:39;7.38;;;2.35;;
70297;SDS011;57702;44.420;20.298;2022-12-20T04:45:05;4.65;;;4.35;;
70297;SDS011;57702;44.420;20.298;2022-12-20T04:47:32;5.15;;;4.07;;
70297;SDS011;57702;44.420;20.298;2022-12-20T04:49:58;4.57;;;4.25;;
70297;SDS011;57702;44.420;20.298;2022-12-20T04:52:24;3.13;;;2.88;;
70297;SDS011;57702;44.420;20.298;2022-12-20T04:55:09;4.22;;;3.78;;
70297;SDS011;57702;44.420;20.298;2022-12-20T04:57:35;14.13;;;4.07;;
70297;SDS011;57702;44.420;20.298;2022-12-20T05:00:01;4.60;;;4.22;;
70297;SDS011;57702;44.420;20.298;2022-12-20T05:02:27;22.33;;;10.85;;
70297;SDS011;57702;44.420;20.298;2022-12-20T05:04:54;17.00;;;8.27;;
70297;SDS011;57702;44.420;20.298;2022-12-20T05:07:20;10.38;;;4.75;;
70297;SDS011;57702;44.420;20.298;2022-12-20T05:09:46;25.95;;;8.90;;
70297;SDS011;57702;44.420;20.298;2022-12-20T05:12:12;117.57;;;29.35;;
70297;SDS011;57702;44.420;20.298;2022-12-20T05:14:40;7.57;;;6.90;;
70297;SDS011;57702;44.420;20.298;2022-12-20T05:17:06;11.38;;;7.45;;
70297;SDS011;57702;44.420;20.298;2022-12-20T05:19:33;8.20;;;6.13;;
70297;SDS011;57702;44.420;20.298;2022-12-20T05:21:59;89.45;;;28.40;;
70297;SDS011;57702;44.420;20.298;2022-12-20T05:24:44;96.18;;;19.42;;
70297;SDS011;57702;44.420;20.298;2022-12-20T05:27:29;13.02;;;6.07;;
70297;SDS011;57702;44.420;20.298;2022-12-20T05:29:55;134.63;;;36.85;;
70297;SDS011;57702;44.420;20.298;2022-12-20T05:32:21;88.13;;;22.63;;
70297;SDS011;57702;44.420;20.298;2022-12-20T05:34:47;107.65;;;24.70;;
70297;SDS011;57702;44.420;20.298;2022-12-20T05:37:13;46.10;;;20.33;;
70297;SDS011;57702;44.420;20.298;2022-12-20T05:39:40;261.67;;;54.53;;
70297;SDS011;57702;44.420;20.298;2022-12-20T05:42:06;50.22;;;17.48;;
70297;SDS011;57702;44.420;20.298;2022-12-20T05:44:32;13.18;;;6.35;;
70297;SDS011;57702;44.420;20.298;2022-12-20T05:46:59;5.00;;;4.65;;
70297;SDS011;57702;44.420;20.298;2022-12-20T05:49:25;16.38;;;6.00;;
70297;SDS011;57702;44.420;20.298;2022-12-20T05:51:51;16.13;;;7.88;;
70297;SDS011;57702;44.420;20.298;2022-12-20T05:54:18;17.58;;;8.20;;
70297;SDS011;57702;44.420;20.298;2022-12-20T05:56:46;9.13;;;8.13;;
70297;SDS011;57702;44.420;20.298;2022-12-20T05:59:12;110.90;;;31.77;;
70297;SDS011;57702;44.420;20.298;2022-12-20T06:01:39;30.27;;;13.07;;
70297;SDS011;57702;44.420;20.298;2022-12-20T06:04:05;29.90;;;8.68;;
70297;SDS011;57702;44.420;20.298;2022-12-20T06:06:31;68.13;;;19.15;;
70297;SDS011;57702;44.420;20.298;2022-12-20T06:08:57;16.23;;;8.50;;
70297;SDS011;57702;44.420;20.298;2022-12-20T06:11:24;41.38;;;15.27;;
70297;SDS011;57702;44.420;20.298;2022-12-20T06:13:50;6.35;;;4.22;;
70297;SDS011;57702;44.420;20.298;2022-12-20T06:16:16;3.97;;;3.67;;
70297;SDS011;57702;44.420;20.298;2022-12-20T06:18:44;17.88;;;4.88;;
70297;SDS011;57702;44.420;20.298;2022-12-20T06:21:11;5.30;;;3.30;;
70297;SDS011;57702;44.420;20.298;2022-12-20T06:23:37;12.55;;;4.10;;
70297;SDS011;57702;44.420;20.298;2022-12-20T06:26:04;4.78;;;4.13;;
70297;SDS011;57702;44.420;20.298;2022-12-20T06:28:33;3.30;;;2.67;;
70297;SDS011;57702;44.420;20.298;2022-12-20T06:31:00;3.13;;;2.92;;
70297;SDS011;57702;44.420;20.298;2022-12-20T06:33:26;9.30;;;6.18;;
70297;SDS011;57702;44.420;20.298;2022-12-20T06:35:52;15.00;;;5.18;;
70297;SDS011;57702;44.420;20.298;2022-12-20T06:38:18;4.30;;;3.38;;
70297;SDS011;57702;44.420;20.298;2022-12-20T06:40:45;12.88;;;6.28;;
70297;SDS011;57702;44.420;20.298;2022-12-20T06:43:11;11.38;;;2.88;;
70297;SDS011;57702;44.420;20.298;2022-12-20T06:45:37;2.28;;;2.20;;
70297;SDS011;57702;44.420;20.298;2022-12-20T06:48:03;10.80;;;4.55;;
70297;SDS011;57702;44.420;20.298;2022-12-20T06:50:29;17.27;;;9.35;;
70297;SDS011;57702;44.420;20.298;2022-12-20T06:52:56;7.80;;;3.17;;
70297;SDS011;57702;44.420;20.298;2022-12-20T06:55:22;6.00;;;5.60;;
70297;SDS011;57702;44.420;20.298;2022-12-20T06:57:48;20.60;;;3.47;;
70297;SDS011;57702;44.420;20.298;2022-12-20T07:00:15;3.33;;;3.10;;
70297;SDS011;57702;44.420;20.298;2022-12-20T07:02:41;4.32;;;4.05;;
70297;SDS011;57702;44.420;20.298;2022-12-20T07:05:09;3.30;;;3.15;;
70297;SDS011;57702;44.420;20.298;2022-12-20T07:07:35;3.03;;;2.83;;
70297;SDS011;57702;44.420;20.298;2022-12-20T07:10:01;13.13;;;5.50;;
70297;SDS011;57702;44.420;20.298;2022-12-20T07:12:28;3.47;;;3.10;;
70297;SDS011;57702;44.420;20.298;2022-12-20T07:14:54;3.17;;;2.40;;
70297;SDS011;57702;44.420;20.298;2022-12-20T07:17:20;6.32;;;4.28;;
70297;SDS011;57702;44.420;20.298;2022-12-20T07:19:46;3.50;;;3.22;;
70297;SDS011;57702;44.420;20.298;2022-12-20T07:22:12;4.13;;;3.78;;
70297;SDS011;57702;44.420;20.298;2022-12-20T07:24:39;3.70;;;1.75;;
70297;SDS011;57702;44.420;20.298;2022-12-20T07:27:05;2.80;;;2.67;;
70297;SDS011;57702;44.420;20.298;2022-12-20T07:29:32;4.13;;;3.80;;
70297;SDS011;57702;44.420;20.298;2022-12-20T07:31:58;5.97;;;5.40;;
70297;SDS011;57702;44.420;20.298;2022-12-20T07:34:24;17.85;;;4.78;;
70297;SDS011;57702;44.420;20.298;2022-12-20T07:36:51;3.88;;;3.05;;
70297;SDS011;57702;44.420;20.298;2022-12-20T07:39:17;4.38;;;3.95;;
70297;SDS011;57702;44.420;20.298;2022-12-20T07:41:43;3.88;;;3.63;;
70297;SDS011;57702;44.420;20.298;2022-12-20T07:44:09;11.57;;;5.13;;
70297;SDS011;57702;44.420;20.298;2022-12-20T07:46:36;2.53;;;2.15;;
70297;SDS011;57702;44.420;20.298;2022-12-20T07:49:02;5.60;;;3.58;;
70297;SDS011;57702;44.420;20.298;2022-12-20T07:51:30;1.80;;;1.80;;
70297;SDS011;57702;44.420;20.298;2022-12-20T07:53:59;25.80;;;4.78;;
70297;SDS011;57702;44.420;20.298;2022-12-20T07:56:26;3.25;;;2.65;;
70297;SDS011;57702;44.420;20.298;2022-12-20T07:58:53;2.45;;;2.25;;
70297;SDS011;57702;44.420;20.298;2022-12-20T08:01:23;4.25;;;3.17;;
70297;SDS011;57702;44.420;20.298;2022-12-20T08:03:52;3.22;;;2.20;;
70297;SDS011;57702;44.420;20.298;2022-12-20T08:06:23;6.05;;;4.00;;
70297;SDS011;57702;44.420;20.298;2022-12-20T08:08:50;4.13;;;3.80;;
70297;SDS011;57702;44.420;20.298;2022-12-20T08:11:18;5.72;;;3.53;;
70297;SDS011;57702;44.420;20.298;2022-12-20T08:16:39;6.75;;;3.38;;
70297;SDS011;57702;44.420;20.298;2022-12-20T08:19:21;3.22;;;2.92;;
70297;SDS011;57702;44.420;20.298;2022-12-20T08:21:48;4.32;;;4.10;;
70297;SDS011;57702;44.420;20.298;2022-12-20T08:24:17;5.50;;;4.93;;
70297;SDS011;57702;44.420;20.298;2022-12-20T08:26:43;9.45;;;2.58;;
70297;SDS011;57702;44.420;20.298;2022-12-20T08:29:09;3.05;;;2.78;;
70297;SDS011;57702;44.420;20.298;2022-12-20T08:31:39;4.05;;;3.72;;
70297;SDS011;57702;44.420;20.298;2022-12-20T08:34:09;3.85;;;3.42;;
70297;SDS011;57702;44.420;20.298;2022-12-20T08:36:36;5.05;;;4.60;;
70297;SDS011;57702;44.420;20.298;2022-12-20T08:39:06;7.68;;;3.13;;
70297;SDS011;57702;44.420;20.298;2022-12-20T08:41:35;5.38;;;3.45;;
70297;SDS011;57702;44.420;20.298;2022-12-20T08:44:02;9.10;;;3.85;;
70297;SDS011;57702;44.420;20.298;2022-12-20T08:46:29;7.93;;;4.60;;
70297;SDS011;57702;44.420;20.298;2022-12-20T08:48:56;5.18;;;3.15;;
70297;SDS011;57702;44.420;20.298;2022-12-20T08:51:22;3.10;;;2.85;;
70297;SDS011;57702;44.420;20.298;2022-12-20T08:53:48;11.23;;;4.22;;
70297;SDS011;57702;44.420;20.298;2022-12-20T08:56:17;4.30;;;3.92;;
70297;SDS011;57702;44.420;20.298;2022-12-20T08:58:44;4.40;;;3.10;;
70297;SDS011;57702;44.420;20.298;2022-12-20T09:01:11;11.18;;;5.55;;
70297;SDS011;57702;44.420;20.298;2022-12-20T09:03:39;6.05;;;3.00;;
70297;SDS011;57702;44.420;20.298;2022-12-20T09:06:06;9.82;;;5.68;;
70297;SDS011;57702;44.420;20.298;2022-12-20T09:08:33;5.50;;;4.25;;
70297;SDS011;57702;44.420;20.298;2022-12-20T09:11:03;4.13;;;3.78;;
70297;SDS011;57702;44.420;20.298;2022-12-20T09:13:29;8.48;;;3.60;;
70297;SDS011;57702;44.420;20.298;2022-12-20T09:15:58;2.38;;;2.28;;
70297;SDS011;57702;44.420;20.298;2022-12-20T09:18:24;2.80;;;2.55;;
70297;SDS011;57702;44.420;20.298;2022-12-20T09:20:50;8.50;;;4.25;;
70297;SDS011;57702;44.420;20.298;2022-12-20T09:23:17;7.75;;;5.93;;
70297;SDS011;57702;44.420;20.298;2022-12-20T09:25:43;9.13;;;6.93;;
70297;SDS011;57702;44.420;20.298;2022-12-20T09:28:09;20.25;;;12.90;;
70297;SDS011;57702;44.420;20.298;2022-12-20T09:30:35;18.50;;;9.02;;
70297;SDS011;57702;44.420;20.298;2022-12-20T09:33:01;58.22;;;23.13;;
70297;SDS011;57702;44.420;20.298;2022-12-20T09:35:27;19.08;;;5.18;;
70297;SDS011;57702;44.420;20.298;2022-12-20T09:37:54;17.38;;;7.80;;
70297;SDS011;57702;44.420;20.298;2022-12-20T09:40:21;6.28;;;4.38;;
70297;SDS011;57702;44.420;20.298;2022-12-20T09:42:48;5.20;;;3.15;;
70297;SDS011;57702;44.420;20.298;2022-12-20T09:45:49;3.70;;;3.05;;
70297;SDS011;57702;44.420;20.298;2022-12-20T09:48:18;5.13;;;3.65;;
70297;SDS011;57702;44.420;20.298;2022-12-20T09:55:49;5.00;;;4.00;;
70297;SDS011;57702;44.420;20.298;2022-12-20T10:00:52;3.28;;;2.60;;
70297;SDS011;57702;44.420;20.298;2022-12-20T10:03:20;14.40;;;3.92;;
70297;SDS011;57702;44.420;20.298;2022-12-20T10:05:51;21.08;;;5.95;;
70297;SDS011;57702;44.420;20.298;2022-12-20T10:08:36;11.40;;;4.88;;
70297;SDS011;57702;44.420;20.298;2022-12-20T10:13:56;4.53;;;4.13;;
70297;SDS011;57702;44.420;20.298;2022-12-20T10:24:24;4.03;;;3.65;;
70297;SDS011;57702;44.420;20.298;2022-12-20T10:26:51;6.30;;;3.80;;
70297;SDS011;57702;44.420;20.298;2022-12-20T10:29:18;7.97;;;5.35;;
70297;SDS011;57702;44.420;20.298;2022-12-20T10:31:45;9.07;;;4.68;;
70297;SDS011;57702;44.420;20.298;2022-12-20T10:34:12;16.00;;;5.30;;
70297;SDS011;57702;44.420;20.298;2022-12-20T10:36:39;6.75;;;4.30;;
70297;SDS011;57702;44.420;20.298;2022-12-20T10:39:06;14.68;;;4.53;;
70297;SDS011;57702;44.420;20.298;2022-12-20T10:41:45;27.58;;;5.28;;
70297;SDS011;57702;44.420;20.298;2022-12-20T10:44:26;27.35;;;6.38;;
70297;SDS011;57702;44.420;20.298;2022-12-20T10:46:54;5.18;;;4.07;;
70297;SDS011;57702;44.420;20.298;2022-12-20T10:49:32;10.18;;;4.15;;
70297;SDS011;57702;44.420;20.298;2022-12-20T10:59:43;3.75;;;3.55;;
70297;SDS011;57702;44.420;20.298;2022-12-20T11:02:29;24.77;;;6.40;;
70297;SDS011;57702;44.420;20.298;2022-12-20T11:07:25;18.52;;;4.88;;
70297;SDS011;57702;44.420;20.298;2022-12-20T11:09:54;13.32;;;8.50;;
70297;SDS011;57702;44.420;20.298;2022-12-20T11:12:21;6.88;;;4.55;;
70297;SDS011;57702;44.420;20.298;2022-12-20T11:14:48;4.45;;;4.05;;
70297;SDS011;57702;44.420;20.298;2022-12-20T11:17:23;7.63;;;5.18;;
70297;SDS011;57702;44.420;20.298;2022-12-20T11:22:26;13.60;;;3.67;;
70297;SDS011;57702;44.420;20.298;2022-12-20T11:27:30;17.00;;;4.93;;
70297;SDS011;57702;44.420;20.298;2022-12-20T11:30:06;5.13;;;4.63;;
70297;SDS011;57702;44.420;20.298;2022-12-20T11:32:41;13.80;;;7.05;;
70297;SDS011;57702;44.420;20.298;2022-12-20T11:37:39;2.28;;;1.90;;
70297;SDS011;57702;44.420;20.298;2022-12-20T11:53:06;24.95;;;8.60;;
70297;SDS011;57702;44.420;20.298;2022-12-20T11:55:34;7.28;;;5.28;;
70297;SDS011;57702;44.420;20.298;2022-12-20T11:58:03;7.43;;;4.05;;
70297;SDS011;57702;44.420;20.298;2022-12-20T12:00:33;10.60;;;4.13;;
70297;SDS011;57702;44.420;20.298;2022-12-20T12:04:02;5.72;;;3.85;;
70297;SDS011;57702;44.420;20.298;2022-12-20T12:06:04;7.35;;;5.97;;
70297;SDS011;57702;44.420;20.298;2022-12-20T12:08:35;4.60;;;4.20;;
70297;SDS011;57702;44.420;20.298;2022-12-20T12:11:13;4.47;;;4.10;;
70297;SDS011;57702;44.420;20.298;2022-12-20T12:13:42;5.55;;;5.05;;
70297;SDS011;57702;44.420;20.298;2022-12-20T12:16:28;5.07;;;3.88;;
70297;SDS011;57702;44.420;20.298;2022-12-20T12:18:56;5.15;;;4.78;;
70297;SDS011;57702;44.420;20.298;2022-12-20T12:21:23;4.50;;;3.10;;
70297;SDS011;57702;44.420;20.298;2022-12-20T12:24:34;6.22;;;3.55;;
70297;SDS011;57702;44.420;20.298;2022-12-20T12:26:39;5.03;;;4.22;;
70297;SDS011;57702;44.420;20.298;2022-12-20T12:36:54;15.23;;;3.97;;
70297;SDS011;57702;44.420;20.298;2022-12-20T12:42:22;20.75;;;4.50;;
70297;SDS011;57702;44.420;20.298;2022-12-20T12:44:53;3.35;;;2.55;;
70297;SDS011;57702;44.420;20.298;2022-12-20T12:47:43;8.10;;;4.38;;
70297;SDS011;57702;44.420;20.298;2022-12-20T12:50:08;5.65;;;4.90;;
70297;SDS011;57702;44.420;20.298;2022-12-20T12:52:41;4.25;;;3.38;;
70297;SDS011;57702;44.420;20.298;2022-12-20T12:57:56;8.95;;;4.43;;
70297;SDS011;57702;44.420;20.298;2022-12-20T13:13:48;16.17;;;6.10;;
70297;SDS011;57702;44.420;20.298;2022-12-20T13:16:25;12.73;;;5.05;;
70297;SDS011;57702;44.420;20.298;2022-12-20T13:19:09;7.03;;;4.50;;
70297;SDS011;57702;44.420;20.298;2022-12-20T13:21:36;18.48;;;5.85;;
70297;SDS011;57702;44.420;20.298;2022-12-20T13:26:51;7.32;;;4.18;;
70297;SDS011;57702;44.420;20.298;2022-12-20T13:29:22;9.60;;;4.63;;
70297;SDS011;57702;44.420;20.298;2022-12-20T13:31:50;17.98;;;5.97;;
70297;SDS011;57702;44.420;20.298;2022-12-20T13:35:16;3.88;;;3.45;;
70297;SDS011;57702;44.420;20.298;2022-12-20T13:37:24;9.27;;;5.18;;
70297;SDS011;57702;44.420;20.298;2022-12-20T13:39:51;4.53;;;3.97;;
70297;SDS011;57702;44.420;20.298;2022-12-20T13:42:30;4.78;;;3.42;;
70297;SDS011;57702;44.420;20.298;2022-12-20T13:45:00;6.30;;;3.03;;
70297;SDS011;57702;44.420;20.298;2022-12-20T13:47:36;21.45;;;5.10;;
70297;SDS011;57702;44.420;20.298;2022-12-20T13:50:17;14.05;;;5.28;;
70297;SDS011;57702;44.420;20.298;2022-12-20T13:52:46;3.10;;;2.90;;
70297;SDS011;57702;44.420;20.298;2022-12-20T13:55:29;6.38;;;3.90;;
70297;SDS011;57702;44.420;20.298;2022-12-20T13:57:56;16.45;;;5.28;;
70297;SDS011;57702;44.420;20.298;2022-12-20T14:00:23;8.07;;;5.32;;
70297;SDS011;57702;44.420;20.298;2022-12-20T14:02:51;10.35;;;4.35;;
70297;SDS011;57702;44.420;20.298;2022-12-20T14:05:22;10.90;;;6.97;;
70297;SDS011;57702;44.420;20.298;2022-12-20T14:07:55;9.13;;;4.53;;
70297;SDS011;57702;44.420;20.298;2022-12-20T14:10:23;7.37;;;3.43;;
70297;SDS011;57702;44.420;20.298;2022-12-20T14:12:50;5.53;;;4.32;;
70297;SDS011;57702;44.420;20.298;2022-12-20T14:15:32;8.65;;;4.60;;
70297;SDS011;57702;44.420;20.298;2022-12-20T14:18:20;5.60;;;4.05;;
70297;SDS011;57702;44.420;20.298;2022-12-20T14:20:46;6.50;;;2.60;;
70297;SDS011;57702;44.420;20.298;2022-12-20T14:23:17;10.10;;;5.22;;
70297;SDS011;57702;44.420;20.298;2022-12-20T14:25:55;12.40;;;4.95;;
70297;SDS011;57702;44.420;20.298;2022-12-20T14:28:38;3.85;;;3.55;;
70297;SDS011;57702;44.420;20.298;2022-12-20T14:31:06;11.57;;;5.50;;
70297;SDS011;57702;44.420;20.298;2022-12-20T14:33:34;16.48;;;4.18;;
70297;SDS011;57702;44.420;20.298;2022-12-20T14:36:09;13.43;;;6.57;;
70297;SDS011;57702;44.420;20.298;2022-12-20T14:38:35;5.75;;;4.13;;
70297;SDS011;57702;44.420;20.298;2022-12-20T14:41:02;11.02;;;7.15;;
70297;SDS011;57702;44.420;20.298;2022-12-20T14:43:31;9.27;;;5.68;;
70297;SDS011;57702;44.420;20.298;2022-12-20T14:49:15;28.77;;;10.40;;
70297;SDS011;57702;44.420;20.298;2022-12-20T14:51:43;21.38;;;10.32;;
70297;SDS011;57702;44.420;20.298;2022-12-20T14:54:12;19.88;;;9.00;;
70297;SDS011;57702;44.420;20.298;2022-12-20T14:56:44;13.15;;;7.70;;
70297;SDS011;57702;44.420;20.298;2022-12-20T14:59:14;15.43;;;8.98;;
70297;SDS011;57702;44.420;20.298;2022-12-20T15:01:41;15.93;;;8.00;;
70297;SDS011;57702;44.420;20.298;2022-12-20T15:06:49;15.88;;;9.48;;
70297;SDS011;57702;44.420;20.298;2022-12-20T15:09:19;19.75;;;9.40;;
70297;SDS011;57702;44.420;20.298;2022-12-20T15:11:45;30.52;;;20.75;;
70297;SDS011;57702;44.420;20.298;2022-12-20T15:16:49;28.42;;;11.90;;
70297;SDS011;57702;44.420;20.298;2022-12-20T15:19:18;71.10;;;20.08;;
70297;SDS011;57702;44.420;20.298;2022-12-20T15:21:46;78.05;;;19.15;;
70297;SDS011;57702;44.420;20.298;2022-12-20T15:24:15;47.55;;;15.68;;
70297;SDS011;57702;44.420;20.298;2022-12-20T15:26:47;38.03;;;17.10;;
70297;SDS011;57702;44.420;20.298;2022-12-20T15:29:14;11.32;;;7.93;;
70297;SDS011;57702;44.420;20.298;2022-12-20T15:31:42;10.38;;;8.02;;
70297;SDS011;57702;44.420;20.298;2022-12-20T15:34:13;24.40;;;8.57;;
70297;SDS011;57702;44.420;20.298;2022-12-20T15:36:40;10.32;;;6.22;;
70297;SDS011;57702;44.420;20.298;2022-12-20T15:39:08;7.72;;;6.60;;
70297;SDS011;57702;44.420;20.298;2022-12-20T15:41:35;35.13;;;13.95;;
70297;SDS011;57702;44.420;20.298;2022-12-20T15:44:03;51.28;;;21.08;;
70297;SDS011;57702;44.420;20.298;2022-12-20T15:46:30;100.93;;;32.35;;
70297;SDS011;57702;44.420;20.298;2022-12-20T15:48:58;84.15;;;29.60;;
70297;SDS011;57702;44.420;20.298;2022-12-20T15:51:30;85.15;;;24.33;;
70297;SDS011;57702;44.420;20.298;2022-12-20T15:53:59;32.63;;;17.42;;
70297;SDS011;57702;44.420;20.298;2022-12-20T15:56:25;75.72;;;30.73;;
70297;SDS011;57702;44.420;20.298;2022-12-20T15:58:52;93.70;;;22.08;;
70297;SDS011;57702;44.420;20.298;2022-12-20T16:01:23;55.50;;;23.17;;
70297;SDS011;57702;44.420;20.298;2022-12-20T16:03:50;32.20;;;18.48;;
70297;SDS011;57702;44.420;20.298;2022-12-20T16:06:16;25.75;;;12.18;;
70297;SDS011;57702;44.420;20.298;2022-12-20T16:08:43;74.70;;;18.27;;
70297;SDS011;57702;44.420;20.298;2022-12-20T16:11:28;23.35;;;11.52;;
70297;SDS011;57702;44.420;20.298;2022-12-20T16:13:54;57.05;;;17.95;;
70297;SDS011;57702;44.420;20.298;2022-12-20T16:16:25;37.88;;;18.40;;
70297;SDS011;57702;44.420;20.298;2022-12-20T16:18:51;22.90;;;10.10;;
70297;SDS011;57702;44.420;20.298;2022-12-20T16:21:21;24.77;;;13.35;;
70297;SDS011;57702;44.420;20.298;2022-12-20T16:23:48;18.75;;;11.75;;
70297;SDS011;57702;44.420;20.298;2022-12-20T16:26:18;27.45;;;13.13;;
70297;SDS011;57702;44.420;20.298;2022-12-20T16:28:45;28.00;;;12.80;;
70297;SDS011;57702;44.420;20.298;2022-12-20T16:33:41;20.92;;;10.07;;
70297;SDS011;57702;44.420;20.298;2022-12-20T16:36:08;21.92;;;10.15;;
70297;SDS011;57702;44.420;20.298;2022-12-20T16:38:36;23.38;;;10.40;;
70297;SDS011;57702;44.420;20.298;2022-12-20T16:43:37;13.05;;;5.30;;